createdAt,value
2022-12-12T00:02:27.329Z,98007.91
2022-12-12T00:05:16.663Z,98007.13
2022-12-12T00:08:02.178Z,97997.25
2022-12-12T00:10:47.962Z,97997.25
2022-12-12T00:13:33.878Z,98004.38
2022-12-12T00:16:19.359Z,98004.38
2022-12-12T00:19:04.548Z,97998.81
2022-12-12T00:21:50.454Z,98006.38
2022-12-12T00:24:36.436Z,97998.81
2022-12-12T00:27:21.899Z,97997.25
2022-12-12T00:30:07.761Z,97989.41
2022-12-12T00:32:53.311Z,97991.41
2022-12-12T00:35:38.599Z,97996.94
2022-12-12T00:38:24.298Z,97989.41
2022-12-12T00:41:10.223Z,97993.38
2022-12-12T00:43:55.444Z,97989.84
2022-12-12T00:46:40.761Z,97998.16
2022-12-12T00:49:26.275Z,97998.91
2022-12-12T00:52:11.518Z,97998.16
2022-12-12T00:54:57.811Z,97999.72
2022-12-12T00:57:43.107Z,98009.56
2022-12-12T01:00:28.985Z,98006.44
2022-12-12T01:03:14.544Z,98004.91
2022-12-12T01:05:59.844Z,98006.44
2022-12-12T01:08:45.102Z,98003.69
2022-12-12T01:11:31.089Z,98010.44
2022-12-12T01:14:16.388Z,98004.13
2022-12-12T01:17:02.245Z,98011.66
2022-12-12T01:19:47.641Z,98013.22
2022-12-12T01:22:32.880Z,98011.66
2022-12-12T01:25:19.497Z,98018.41
2022-12-12T01:28:05.183Z,98005.78
2022-12-12T01:30:50.971Z,98014.06
2022-12-12T01:33:36.655Z,98010.53
2022-12-12T01:36:23.910Z,98016.41
2022-12-12T01:39:09.213Z,98012.53
2022-12-12T01:41:54.526Z,98011.31
2022-12-12T01:44:48.997Z,98013.72
2022-12-12T01:47:34.336Z,98013.72
2022-12-12T01:50:19.597Z,98010.97
2022-12-12T01:53:05.002Z,98010.19
2022-12-12T01:55:50.741Z,98010.97
2022-12-12T01:58:36.210Z,98010.97
2022-12-12T02:01:22.337Z,98009.44
2022-12-12T02:04:10.738Z,98014.19
2022-12-12T02:06:56.710Z,98011.44
2022-12-12T02:09:42.435Z,98012.63
2022-12-12T02:12:27.839Z,98018.16
2022-12-12T02:15:14.159Z,98007.84
2022-12-12T02:18:13.543Z,98013.41
2022-12-12T02:21:08.313Z,98014.19
2022-12-12T02:24:31.176Z,98010.31
2022-12-12T02:27:38.379Z,98013.84
2022-12-12T02:30:45.726Z,98010.31
2022-12-12T02:33:55.574Z,98013.41
2022-12-12T02:36:50.105Z,98016.16
2022-12-12T02:40:03.863Z,98013.41
2022-12-12T02:42:54.951Z,98013.41
2022-12-12T02:45:47.566Z,98014.63
2022-12-12T02:48:59.231Z,98015.06
2022-12-12T02:51:46.092Z,98015.06
2022-12-12T02:54:31.353Z,98014.28
2022-12-12T02:57:25.075Z,98019.81
2022-12-12T03:00:12.523Z,98018.63
2022-12-12T03:03:31.847Z,98017.03
2022-12-12T03:06:54.627Z,98008.41
2022-12-12T03:10:03.326Z,98015.16
2022-12-12T03:13:12.629Z,98014.38
2022-12-12T03:16:35.093Z,98008.84
2022-12-12T03:19:34.280Z,98004.09
2022-12-12T03:22:47.149Z,98008.84
2022-12-12T03:25:41.319Z,98008.84
2022-12-12T03:28:32.987Z,98010.81
2022-12-12T03:31:24.463Z,98010.06
2022-12-12T03:34:19.159Z,98003.75
2022-12-12T03:37:12.071Z,98004.94
2022-12-12T03:40:01.839Z,97995.78
2022-12-12T03:42:54.245Z,98000.88
2022-12-12T03:45:47.569Z,97996.91
2022-12-12T03:48:47.943Z,98000.09
2022-12-12T03:51:39.335Z,97994.13
2022-12-12T03:54:30.031Z,98000.78
2022-12-12T03:57:24.164Z,98001.13
2022-12-12T04:00:13.897Z,98001.47
2022-12-12T04:03:30.115Z,98004.66
2022-12-12T04:06:29.717Z,98006.66
2022-12-12T04:09:37.685Z,98006.22
2022-12-12T04:12:56.367Z,98008.66
2022-12-12T04:15:58.208Z,98011.50
2022-12-12T04:18:56.667Z,98011.16
2022-12-12T04:22:17.907Z,98009.16
2022-12-12T04:25:26.955Z,98006.88
2022-12-12T04:28:13.935Z,98006.88
2022-12-12T04:31:03.848Z,98012.06
2022-12-12T04:33:53.107Z,98008.94
2022-12-12T04:36:41.064Z,98012.06
2022-12-12T04:39:29.180Z,98016.81
2022-12-12T04:42:18.565Z,98012.91
2022-12-12T04:45:19.022Z,98014.91
2022-12-12T04:48:07.834Z,98018.44
2022-12-12T04:50:53.767Z,98012.13
2022-12-12T04:53:44.871Z,98019.13
2022-12-12T04:56:33.381Z,98027.09
2022-12-12T04:59:19.581Z,98028.66
2022-12-12T05:02:28.146Z,98030.00
2022-12-12T05:05:39.758Z,98025.84
2022-12-12T05:08:33.512Z,98033.78
2022-12-12T05:11:22.021Z,98029.81
2022-12-12T05:14:09.395Z,98035.25
2022-12-12T05:16:58.444Z,98028.94
2022-12-12T05:19:43.689Z,98036.34
2022-12-12T05:22:30.024Z,98038.28
2022-12-12T05:25:15.800Z,98049.22
2022-12-12T05:28:01.441Z,98039.81
2022-12-12T05:30:49.369Z,98045.69
2022-12-12T05:33:34.601Z,98046.81
2022-12-12T05:36:20.685Z,98049.13
2022-12-12T05:39:06.152Z,98049.69
2022-12-12T05:41:51.525Z,98056.91
2022-12-12T05:44:36.829Z,98052.13
2022-12-12T05:47:22.279Z,98057.59
2022-12-12T05:50:07.805Z,98057.84
2022-12-12T05:52:53.214Z,98054.09
2022-12-12T05:55:39.100Z,98057.97
2022-12-12T05:58:24.505Z,98057.97
2022-12-12T06:01:09.916Z,98057.50
2022-12-12T06:03:55.458Z,98061.06
2022-12-12T06:06:40.642Z,98064.19
2022-12-12T06:09:25.960Z,98066.69
2022-12-12T06:12:12.212Z,98060.13
2022-12-12T06:14:57.428Z,98069.00
2022-12-12T06:17:42.839Z,98060.34
2022-12-12T06:20:30.497Z,98068.91
2022-12-12T06:23:16.023Z,98067.69
2022-12-12T06:26:01.348Z,98072.78
2022-12-12T06:28:47.358Z,98072.00
2022-12-12T06:31:34.024Z,98078.00
2022-12-12T06:34:19.179Z,98083.53
2022-12-12T06:37:07.003Z,98084.72
2022-12-12T06:39:52.435Z,98081.19
2022-12-12T06:42:38.593Z,98083.63
2022-12-12T06:45:25.916Z,98093.94
2022-12-12T06:48:11.179Z,98093.94
2022-12-12T06:50:56.559Z,98086.06
2022-12-12T06:53:42.210Z,98091.72
2022-12-12T06:56:27.745Z,98093.69
2022-12-12T06:59:13.668Z,98097.25
2022-12-12T07:01:59.336Z,98096.91
2022-12-12T07:04:44.650Z,98098.44
2022-12-12T07:07:29.959Z,98094.13
2022-12-12T07:10:18.608Z,98092.91
2022-12-12T07:13:06.438Z,98098.00
2022-12-12T07:15:55.997Z,98097.25
2022-12-12T07:18:41.582Z,98102.78
2022-12-12T07:21:27.081Z,98102.78
2022-12-12T07:24:12.820Z,98113.88
2022-12-12T07:26:58.174Z,98116.97
2022-12-12T07:29:43.453Z,98113.41
2022-12-12T07:32:28.740Z,98118.94
2022-12-12T07:35:14.399Z,98122.50
2022-12-12T07:37:59.989Z,98124.94
2022-12-12T07:40:45.221Z,98127.72
2022-12-12T07:43:33.189Z,98133.25
2022-12-12T07:46:23.216Z,98134.44
2022-12-12T07:49:08.827Z,98140.00
2022-12-12T07:51:54.352Z,98131.34
2022-12-12T07:54:39.570Z,98143.63
2022-12-12T07:57:24.796Z,98147.59
2022-12-12T08:00:13.199Z,98139.75
2022-12-12T08:02:58.633Z,98139.31
2022-12-12T08:05:43.810Z,98144.06
2022-12-12T08:08:29.109Z,98152.81
2022-12-12T08:11:17.231Z,98149.25
2022-12-12T08:14:02.703Z,98146.84
2022-12-12T08:16:47.994Z,98143.72
2022-12-12T08:19:33.839Z,98141.72
2022-12-12T08:22:19.419Z,98148.06
2022-12-12T08:25:05.545Z,98146.50
2022-12-12T08:27:51.076Z,98151.25
2022-12-12T08:30:36.391Z,98154.81
2022-12-12T08:33:21.888Z,98155.56
2022-12-12T08:36:15.814Z,98165.09
2022-12-12T08:39:14.066Z,98168.22
2022-12-12T08:42:00.227Z,98169.75
2022-12-12T08:44:45.568Z,98173.34
2022-12-12T08:47:30.663Z,98171.75
2022-12-12T08:50:15.816Z,98166.22
2022-12-12T08:53:01.652Z,98168.22
2022-12-12T08:55:46.869Z,98173.75
2022-12-12T08:58:32.232Z,98180.50
2022-12-12T09:01:20.589Z,98181.72
2022-12-12T09:04:06.313Z,98186.03
2022-12-12T09:06:51.690Z,98186.03
2022-12-12T09:09:37.376Z,98189.59
2022-12-12T09:12:22.539Z,98182.84
2022-12-12T09:15:08.970Z,98193.91
2022-12-12T09:17:54.325Z,98190.72
2022-12-12T09:20:39.678Z,98197.81
2022-12-12T09:23:26.511Z,98196.25
2022-12-12T09:26:12.095Z,98202.56
2022-12-12T09:28:57.726Z,98208.09
2022-12-12T09:31:44.103Z,98210.09
2022-12-12T09:34:29.249Z,98208.88
2022-12-12T09:37:14.688Z,98208.09
2022-12-12T09:40:00.204Z,98204.16
2022-12-12T09:42:51.290Z,98206.13
2022-12-12T09:45:37.897Z,98206.13
2022-12-12T09:48:36.908Z,98207.69
2022-12-12T09:51:23.011Z,98207.22
2022-12-12T09:54:13.043Z,98206.47
2022-12-12T09:57:24.847Z,98200.91
2022-12-12T10:00:13.291Z,98208.88
2022-12-12T10:03:14.025Z,98202.91
2022-12-12T10:06:35.750Z,98207.69
2022-12-12T10:09:30.641Z,98206.47
2022-12-12T10:12:19.199Z,98204.91
2022-12-12T10:15:20.226Z,98203.69
2022-12-12T10:18:13.570Z,98215.53
2022-12-12T10:21:02.943Z,98205.69
2022-12-12T10:24:01.193Z,98208.47
2022-12-12T10:26:46.814Z,98216.00
2022-12-12T10:29:35.457Z,98209.69
2022-12-12T10:32:39.931Z,98213.22
2022-12-12T10:35:59.112Z,98216.75
2022-12-12T10:39:08.600Z,98219.19
2022-12-12T10:42:06.611Z,98219.97
2022-12-12T10:45:03.987Z,98221.19
2022-12-12T10:47:50.170Z,98228.63
2022-12-12T10:50:44.512Z,98224.31
2022-12-12T10:53:32.336Z,98221.19
2022-12-12T10:56:31.070Z,98223.97
2022-12-12T10:59:22.178Z,98224.31
2022-12-12T11:02:26.534Z,98218.00
2022-12-12T11:05:34.824Z,98214.88
2022-12-12T11:08:31.982Z,98215.66
2022-12-12T11:11:25.551Z,98219.97
2022-12-12T11:14:32.865Z,98206.56
2022-12-12T11:17:30.210Z,98217.66
2022-12-12T11:20:18.507Z,98213.66
2022-12-12T13:29:23.630Z,98257.53
2022-12-12T13:32:29.486Z,98257.34
2022-12-12T13:35:22.533Z,98262.66
2022-12-12T13:38:17.879Z,98265.41
2022-12-12T13:41:06.592Z,98263.69
2022-12-12T13:44:00.346Z,98260.56
2022-12-12T13:46:45.909Z,98265.31
2022-12-12T13:49:54.413Z,98271.19
2022-12-12T13:52:43.180Z,98260.94
2022-12-12T13:55:28.483Z,98281.59
2022-12-12T13:58:33.312Z,98274.56
2022-12-12T14:01:40.596Z,98276.72
2022-12-12T14:04:31.806Z,98283.66
2022-12-12T14:07:25.831Z,98274.00
2022-12-12T14:10:39.810Z,98284.13
2022-12-12T14:13:41.528Z,98286.34
2022-12-12T14:16:27.692Z,98293.00
2022-12-12T14:19:50.405Z,98292.47
2022-12-12T14:22:38.680Z,98292.41
2022-12-12T14:25:35.360Z,98292.75
2022-12-12T14:28:27.800Z,98298.19
2022-12-12T14:31:17.468Z,98291.03
2022-12-12T14:34:24.623Z,98297.69
2022-12-12T14:37:23.633Z,98294.47
2022-12-12T14:40:21.763Z,98293.59
2022-12-12T14:43:23.131Z,98300.63
2022-12-12T14:46:17.718Z,98294.19
2022-12-12T14:49:05.220Z,98301.69
2022-12-12T14:51:54.297Z,98302.78
2022-12-12T14:54:40.685Z,98306.75
2022-12-12T14:57:27.369Z,98306.69
2022-12-12T15:00:19.941Z,98311.81
2022-12-12T15:03:06.736Z,98313.69
2022-12-12T15:06:20.871Z,98320.00
2022-12-12T15:09:16.010Z,98324.69
2022-12-12T15:12:10.602Z,98319.56
2022-12-12T15:14:57.777Z,98331.00
2022-12-12T15:17:50.735Z,98338.09
2022-12-12T15:20:36.568Z,98337.31
2022-12-12T15:23:22.333Z,98347.03
2022-12-12T15:26:18.059Z,98354.16
2022-12-12T15:29:04.967Z,98358.72
2022-12-12T15:31:57.539Z,98363.38
2022-12-12T15:40:36.987Z,98361.53
2022-12-12T15:43:29.661Z,98364.31
2022-12-12T15:46:15.350Z,98363.88
2022-12-12T15:49:00.231Z,98364.31
2022-12-12T15:51:44.847Z,98363.53
2022-12-12T15:54:30.225Z,98368.66
2022-12-12T15:57:21.493Z,98367.44
2022-12-12T16:00:09.807Z,98372.63
2022-12-12T16:03:02.457Z,98383.41
2022-12-12T16:06:03.231Z,98375.09
2022-12-12T16:09:02.611Z,98379.75
2022-12-12T16:11:56.147Z,98382.00
2022-12-12T16:14:42.959Z,98380.34
2022-12-12T16:17:30.283Z,98387.34
2022-12-12T16:20:16.215Z,98383.38
2022-12-12T16:23:11.641Z,98388.03
2022-12-12T16:25:58.347Z,98392.38
2022-12-12T16:28:43.911Z,98392.03
2022-12-12T16:31:29.168Z,98399.25
2022-12-12T16:34:14.517Z,98402.09
2022-12-12T16:36:59.987Z,98398.63
2022-12-12T16:39:45.466Z,98409.28
2022-12-12T16:42:30.932Z,98405.06
2022-12-12T16:45:16.265Z,98413.81
2022-12-12T16:48:01.765Z,98405.41
2022-12-12T16:50:49.370Z,98414.41
2022-12-12T16:53:36.126Z,98417.06
2022-12-12T16:56:22.237Z,98418.13
2022-12-12T16:59:07.522Z,98418.03
2022-12-12T17:01:53.723Z,98413.16
2022-12-12T17:04:39.262Z,98410.72
2022-12-12T17:07:25.087Z,98411.19
2022-12-12T17:10:12.778Z,98411.59
2022-12-12T17:12:58.802Z,98416.25
2022-12-12T17:15:45.004Z,98415.06
2022-12-12T17:18:30.453Z,98419.38
2022-12-12T17:21:16.217Z,98423.38
2022-12-12T17:24:01.760Z,98423.47
2022-12-12T17:26:47.603Z,98433.09
2022-12-12T17:29:32.860Z,98424.78
2022-12-12T17:32:22.897Z,98428.31
2022-12-12T17:35:09.933Z,98424.78
2022-12-12T17:37:55.549Z,98431.91
2022-12-12T17:40:44.118Z,98433.88
2022-12-12T17:43:29.837Z,98431.91
2022-12-12T17:46:17.456Z,98437.09
2022-12-12T17:49:03.306Z,98440.31
2022-12-12T17:51:48.424Z,98445.94
2022-12-12T17:54:34.010Z,98437.59
2022-12-12T17:57:22.970Z,98447.94
2022-12-12T18:00:12.016Z,98437.25
2022-12-12T18:02:58.150Z,98445.25
2022-12-12T18:05:43.808Z,98452.00
2022-12-12T18:08:29.310Z,98444.91
2022-12-12T18:11:19.904Z,98445.78
2022-12-12T18:14:07.322Z,98444.66
2022-12-12T18:16:53.206Z,98437.63
2022-12-12T18:19:38.915Z,98440.69
2022-12-12T18:22:24.353Z,98441.63
2022-12-12T18:25:10.214Z,98448.03
2022-12-12T18:27:56.106Z,98454.44
2022-12-12T18:30:42.608Z,98453.22
2022-12-12T18:33:28.256Z,98454.81
2022-12-12T18:36:17.884Z,98460.41
2022-12-12T18:39:05.958Z,98464.13
2022-12-12T18:41:52.130Z,98464.75
2022-12-12T18:44:37.923Z,98470.38
2022-12-12T18:47:23.364Z,98464.84
2022-12-12T18:50:09.303Z,98464.09
2022-12-12T18:52:55.092Z,98459.94
2022-12-12T18:55:44.810Z,98457.69
2022-12-12T18:58:30.212Z,98460.97
2022-12-12T19:01:19.350Z,98467.44
2022-12-12T19:04:11.760Z,98464.81
2022-12-12T19:07:00.883Z,98469.22
2022-12-12T19:09:46.865Z,98467.69
2022-12-12T19:12:34.130Z,98467.75
2022-12-12T19:15:19.742Z,98473.38
2022-12-12T19:18:05.320Z,98467.47
2022-12-12T19:20:53.748Z,98464.78
2022-12-12T19:23:40.001Z,98467.97
2022-12-12T19:26:28.433Z,98464.00
2022-12-12T19:29:18.050Z,98466.97
2022-12-12T19:32:03.749Z,98464.41
2022-12-12T19:34:49.574Z,98468.22
2022-12-12T19:37:36.200Z,98458.97
2022-12-12T19:40:22.114Z,98459.22
2022-12-12T19:43:07.199Z,98473.78
2022-12-12T19:46:01.974Z,98474.25
2022-12-12T19:48:48.247Z,98471.19
2022-12-12T19:51:36.005Z,98477.66
2022-12-12T19:54:21.773Z,98473.94
2022-12-12T19:57:07.443Z,98471.56
2022-12-12T19:59:53.744Z,98475.69
2022-12-12T20:02:39.782Z,98478.97
2022-12-12T20:05:25.141Z,98480.25
2022-12-12T20:11:14.495Z,98486.31
2022-12-12T20:14:01.923Z,98473.75
2022-12-12T20:16:48.188Z,98475.72
2022-12-12T20:19:33.807Z,98483.69
2022-12-12T20:22:19.618Z,98473.81
2022-12-12T20:25:05.732Z,98473.81
2022-12-12T20:27:51.726Z,98473.81
2022-12-12T20:30:37.522Z,98468.28
2022-12-12T20:33:23.404Z,98456.00
2022-12-12T20:36:15.162Z,98462.75
2022-12-12T20:39:04.253Z,98466.63
2022-12-12T20:41:53.396Z,98461.09
2022-12-12T20:44:39.309Z,98467.34
2022-12-12T20:47:24.609Z,98475.94
2022-12-12T20:50:10.258Z,98475.09
2022-12-12T20:52:55.730Z,98475.09
2022-12-12T20:55:41.226Z,98480.09
2022-12-12T20:58:26.911Z,98485.59
2022-12-12T21:01:21.264Z,98495.03
2022-12-12T21:04:11.357Z,98492.19
2022-12-12T21:06:57.027Z,98480.75
2022-12-12T21:15:19.150Z,98479.47
2022-12-12T21:18:05.292Z,98479.81
2022-12-12T21:20:50.826Z,98491.66
2022-12-12T21:23:37.324Z,98490.03
2022-12-12T21:26:28.889Z,98484.84
2022-12-12T21:29:15.519Z,98487.97
2022-12-12T21:32:00.858Z,98494.63
2022-12-12T21:34:46.658Z,98501.31
2022-12-12T21:37:35.845Z,98500.44
2022-12-12T21:40:23.778Z,98510.69
2022-12-12T21:43:09.236Z,98504.25
2022-12-12T21:45:54.512Z,98503.44
2022-12-12T21:48:40.372Z,98506.88
2022-12-12T21:51:25.462Z,98503.25
2022-12-12T21:54:13.153Z,98505.56
2022-12-12T21:57:00.237Z,98497.66
2022-12-12T21:59:48.798Z,98505.88
2022-12-12T22:02:33.987Z,98509.53
2022-12-12T22:05:19.198Z,98502.56
2022-12-12T22:08:04.583Z,98498.66
2022-12-12T22:10:54.254Z,98504.34
2022-12-12T22:13:40.528Z,98514.38
2022-12-12T22:16:25.875Z,98500.19
2022-12-12T22:19:13.330Z,98499.88
2022-12-12T22:21:58.857Z,98500.75
2022-12-12T22:24:44.125Z,98494.50
2022-12-12T22:27:29.331Z,98492.25
2022-12-12T22:30:15.649Z,98484.81
2022-12-12T22:33:00.863Z,98492.41
2022-12-12T22:35:46.248Z,98485.28
2022-12-12T22:38:37.863Z,98491.69
2022-12-12T22:41:24.486Z,98484.59
2022-12-12T22:44:14.835Z,98488.56
2022-12-12T22:47:00.135Z,98489.00
2022-12-12T22:49:45.180Z,98489.44
2022-12-12T22:52:30.525Z,98500.94
2022-12-12T22:55:17.131Z,98483.19
2022-12-12T22:58:02.902Z,98491.50
2022-12-12T23:00:48.311Z,98494.25
2022-12-12T23:03:33.625Z,98495.44
2022-12-12T23:06:25.734Z,98492.69
2022-12-12T23:09:21.029Z,98499.09
2022-12-12T23:12:07.466Z,98487.66
2022-12-12T23:14:52.797Z,98483.34
2022-12-12T23:17:38.105Z,98491.28
2022-12-12T23:20:23.448Z,98488.88
2022-12-12T23:23:08.623Z,98490.06
2022-12-12T23:25:53.975Z,98481.41
2022-12-12T23:28:40.024Z,98492.13
2022-12-12T23:31:28.527Z,98492.91
2022-12-12T23:34:20.441Z,98494.13
2022-12-12T23:37:05.712Z,98484.25
2022-12-12T23:39:52.061Z,98491.34
2022-12-12T23:42:37.745Z,98489.78
2022-12-12T23:45:23.049Z,98492.97
2022-12-12T23:48:08.480Z,98485.53
2022-12-12T23:50:53.696Z,98491.06
2022-12-12T23:53:39.728Z,98488.31
2022-12-12T23:56:25.779Z,98480.41
2022-12-12T23:59:17.161Z,98487.94
